M I D A S
Marine Information and Data Acquisition System
Tripno 451 of the Zeeleeuw from 2003-03-27 07:26:41 to 2003-03-27 16:33:47
Back to CruiseResearch ActivitiesStationsMapUnderway DataData graphs

EquipmentUnitsComments
TimeDGPSUTC
LatitudeDGPSDM.mWGS84
LongitudeDGPSDM.mWGS84
SpeedMeteo Stationm/sRelative wind speed
DirectionMeteo StationdegRelative wind direction
TemperatureMeteo Stationdeg CelciusAir temperature
PressureMeteo StationPaAtmospheric pressure
HumidityMeteo Station%Relative humidity
Missing or incorrect values are displayed as -999
Metereological data collected by the RV Zeeleeuw from 2003-03-27 07:26:41 to 2003-03-27 16:33:47
Time Latitude Longitude Speed Direction Temperature Pressure Humidity
2003-03-27 07:27 51°13.599 2°56.104 1.8 70 6.2 101760 89
2003-03-27 07:28 51°13.598 2°56.103 2.1 55 6.2 101760 89
2003-03-27 07:29 51°13.605 2°56.073 2.7 124 6.3 101760 90
2003-03-27 07:30 51°13.625 2°55.98 3 134 6.2 101760 90
2003-03-27 07:31 51°13.662 2°55.87 3.8 125 6.1 101760 90
2003-03-27 07:32 51°13.68 2°55.83 2.4 57 6.1 101760 90
2003-03-27 07:33 51°13.687 2°55.785 1.1 84 6.1 101760 90
2003-03-27 07:34 51°13.687 2°55.74 1.5 62 6.1 101760 90
2003-03-27 07:35 51°13.698 2°55.746 2.3 354 6.2 101760 90
2003-03-27 07:36 51°13.732 2°55.735 2.5 323 6.2 101760 90
2003-03-27 07:37 51°13.79 2°55.674 4.3 327 6.1 101760 90
2003-03-27 07:38 51°13.873 2°55.606 5.1 329 6 101760 90
2003-03-27 07:39 51°13.968 2°55.544 5.2 330 5.9 101760 90
2003-03-27 07:40 51°14.064 2°55.479 6 316 5.8 101760 91
2003-03-27 07:41 51°14.154 2°55.399 5.8 302 5.6 101770 91
2003-03-27 07:42 51°14.238 2°55.3 4.1 292 5.5 101770 91
2003-03-27 07:43 51°14.307 2°55.167 4.4 284 5.5 101770 91
2003-03-27 07:44 51°14.367 2°55.035 5 281 5.5 101770 92
2003-03-27 07:45 51°14.447 2°54.895 4.9 283 5.4 101770 92
2003-03-27 07:46 51°14.527 2°54.672 5.1 281 5.3 101760 92
2003-03-27 07:47 51°14.608 2°54.433 4.6 281 5.3 101770 92
2003-03-27 07:48 51°14.691 2°54.192 6.2 292 5.3 101770 92
2003-03-27 07:49 51°14.783 2°53.918 5.9 299 5.3 101760 92
2003-03-27 07:50 51°14.872 2°53.637 6.2 297 5.2 101770 93
2003-03-27 07:51 51°14.962 2°53.356 5.8 293 5.2 101760 93
2003-03-27 07:52 51°15.052 2°53.075 6.4 293 5.1 101760 93
2003-03-27 07:53 51°15.142 2°52.797 7.4 297 5.1 101760 93
2003-03-27 07:54 51°15.231 2°52.507 4.9 283 5.1 101760 93
2003-03-27 07:55 51°15.319 2°52.229 6.7 301 5.1 101760 93
2003-03-27 07:56 51°15.421 2°51.956 7.4 300 5 101760 94
2003-03-27 07:57 51°15.539 2°51.671 7.8 306 5 101760 94
2003-03-27 07:58 51°15.668 2°51.395 7.8 310 4.9 101760 94
2003-03-27 07:59 51°15.801 2°51.123 7.8 298 4.9 101760 94
2003-03-27 08:00 51°15.937 2°50.853 8.4 301 4.9 101760 94
2003-03-27 08:01 51°16.072 2°50.583 7.9 299 4.9 101760 94
2003-03-27 08:02 51°16.205 2°50.315 8.3 302 4.8 101760 94
2003-03-27 08:03 51°16.34 2°50.046 8.1 301 4.7 101770 94
2003-03-27 08:04 51°16.484 2°49.792 8.5 302 4.7 101760 94
2003-03-27 08:05 51°16.636 2°49.544 9 303 4.7 101770 94
2003-03-27 08:06 51°16.792 2°49.29 8.7 303 4.7 101760 94
2003-03-27 08:07 51°16.942 2°49.037 8.7 306 4.6 101760 94
2003-03-27 08:08 51°17.097 2°48.779 9.4 307 4.7 101770 95
2003-03-27 08:09 51°17.261 2°48.536 9 306 4.7 101770 95
2003-03-27 08:10 51°17.422 2°48.295 8.9 302 4.6 101760 95
2003-03-27 08:11 51°17.576 2°48.038 8.3 300 4.6 101770 95
2003-03-27 08:12 51°17.712 2°47.76 8.2 302 4.6 101770 95
2003-03-27 08:13 51°17.824 2°47.456 6.4 296 4.6 101780 95
2003-03-27 08:14 51°17.869 2°47.117 5.1 304 4.5 101790 95
2003-03-27 08:15 51°17.9 2°46.779 5.5 295 4.5 101780 95
2003-03-27 08:16 51°17.94 2°46.436 6 296 4.5 101780 95
2003-03-27 08:17 51°17.981 2°46.092 5.3 296 4.5 101780 95
2003-03-27 08:18 51°18.024 2°45.747 5.5 294 4.5 101780 95
2003-03-27 08:19 51°18.049 2°45.461 3 257 4.5 101790 95
2003-03-27 08:20 51°18.048 2°45.228 5.5 276 4.6 101800 95
2003-03-27 08:21 51°18.111 2°45.137 5.6 290 4.6 101790 95
2003-03-27 08:22 51°18.158 2°45.117 4.5 283 4.6 101790 95
2003-03-27 08:23 51°18.175 2°45.119 5.4 294 4.5 101790 95
2003-03-27 08:24 51°18.191 2°45.12 5.2 283 4.5 101790 95
2003-03-27 08:25 51°18.207 2°45.119 5.6 285 4.5 101800 95
2003-03-27 08:26 51°18.231 2°45.115 5.5 290 4.5 101800 95
2003-03-27 08:27 51°18.263 2°45.11 6.7 300 4.5 101800 95
2003-03-27 08:28 51°18.3 2°45.11 6.8 297 4.5 101790 95
2003-03-27 08:29 51°18.342 2°45.111 6.1 306 4.5 101790 95
2003-03-27 08:30 51°18.39 2°45.116 7.4 315 4.4 101780 95
2003-03-27 08:31 51°18.441 2°45.139 7.3 333 4.4 101780 95
2003-03-27 08:32 51°18.487 2°45.184 7.4 341 4.5 101780 95
2003-03-27 08:33 51°18.534 2°45.233 7 340 4.5 101780 95
2003-03-27 08:34 51°18.574 2°45.287 6.6 345 4.6 101780 95
2003-03-27 08:35 51°18.614 2°45.334 7.6 342 4.6 101780 95
2003-03-27 08:36 51°18.655 2°45.379 7.2 345 4.6 101790 95
2003-03-27 08:37 51°18.697 2°45.422 7.1 346 4.6 101790 95
2003-03-27 08:38 51°18.74 2°45.471 6.7 352 4.6 101790 95
2003-03-27 08:39 51°18.78 2°45.528 7.5 358 4.6 101790 95
2003-03-27 08:40 51°18.816 2°45.588 7.3 7 4.6 101790 95
2003-03-27 08:41 51°18.849 2°45.648 7.8 10 4.6 101790 95
2003-03-27 08:42 51°18.876 2°45.716 6.7 6 4.7 101790 96
2003-03-27 08:43 51°18.906 2°45.784 7.5 2 4.7 101790 95
2003-03-27 08:44 51°18.941 2°45.851 7.8 358 4.7 101800 96
2003-03-27 08:45 51°18.98 2°45.91 7.3 345 4.7 101790 96
2003-03-27 08:46 51°19.019 2°45.957 6.1 342 4.6 101790 96
2003-03-27 08:47 51°19.056 2°46.004 7.3 340 4.7 101780 96
2003-03-27 08:48 51°19.093 2°46.052 7.5 343 4.6 101790 96
2003-03-27 08:49 51°19.14 2°46.088 8 338 4.6 101780 96
2003-03-27 08:50 51°19.184 2°46.129 6.9 335 4.5 101780 96
2003-03-27 08:51 51°19.229 2°46.169 7.2 343 4.6 101790 96
2003-03-27 08:52 51°19.269 2°46.216 7.3 349 4.6 101790 96
2003-03-27 08:53 51°19.308 2°46.269 7.4 350 4.5 101790 96
2003-03-27 08:54 51°19.346 2°46.325 7.3 353 4.6 101790 96
2003-03-27 08:55 51°19.382 2°46.386 7.7 359 4.6 101800 96
2003-03-27 08:56 51°19.416 2°46.449 7.1 352 4.5 101800 96
2003-03-27 08:57 51°19.452 2°46.504 7.5 359 4.6 101800 96
2003-03-27 08:58 51°19.49 2°46.56 7 352 4.6 101800 96
2003-03-27 08:59 51°19.531 2°46.612 7.5 351 4.6 101800 96
2003-03-27 09:00 51°19.572 2°46.663 7.3 351 4.6 101790 96
2003-03-27 09:01 51°19.613 2°46.712 7.8 350 4.5 101800 96
2003-03-27 09:02 51°19.65 2°46.77 6.8 1 4.5 101800 96
2003-03-27 09:03 51°19.677 2°46.822 7 14 4.6 101800 96
2003-03-27 09:04 51°19.692 2°46.877 7.2 37 4.6 101800 96
2003-03-27 09:05 51°19.703 2°46.932 6.8 45 4.6 101800 96
2003-03-27 09:06 51°19.708 2°46.996 7.3 316 4.6 101800 96
2003-03-27 09:07 51°19.706 2°47.07 7.9 58 4.6 101800 96
2003-03-27 09:08 51°19.684 2°47.137 6 94 4.6 101800 96
2003-03-27 09:09 51°19.647 2°47.163 4.1 132 4.6 101810 96
2003-03-27 09:10 51°19.609 2°47.15 3.8 132 4.5 101810 96
2003-03-27 09:11 51°19.575 2°47.138 4.3 136 4.5 101810 96
2003-03-27 09:12 51°19.54 2°47.128 5.3 126 4.5 101810 96
2003-03-27 09:13 51°19.506 2°47.126 5.1 124 4.5 101810 96
2003-03-27 09:14 51°19.474 2°47.127 4.3 125 4.4 101810 96
2003-03-27 09:15 51°19.44 2°47.123 5.1 135 4.4 101810 96
2003-03-27 09:16 51°19.404 2°47.114 5.6 137 4.4 101800 96
2003-03-27 09:17 51°19.371 2°47.101 4.5 135 4.4 101810 96
2003-03-27 09:18 51°19.343 2°47.092 4.3 142 4.3 101810 96
2003-03-27 09:19 51°19.31 2°47.076 4.1 140 4.4 101810 96
2003-03-27 09:20 51°19.28 2°47.047 4.2 159 4.3 101810 96
2003-03-27 09:21 51°19.254 2°47.015 2.3 169 4.3 101810 96
2003-03-27 09:22 51°19.234 2°46.973 4.1 194 4.5 101810 96
2003-03-27 09:23 51°19.221 2°46.925 5 214 4.5 101810 96
2003-03-27 09:24 51°19.22 2°46.87 4.3 221 4.4 101810 96
2003-03-27 09:25 51°19.223 2°46.811 4.2 226 4.5 101820 96
2003-03-27 09:26 51°19.232 2°46.754 5.5 245 4.5 101820 96
2003-03-27 09:27 51°19.254 2°46.699 5.5 247 4.5 101820 96
2003-03-27 09:28 51°19.281 2°46.651 6.6 264 4.5 101810 96
2003-03-27 09:29 51°19.315 2°46.609 7.6 275 4.5 101810 96
2003-03-27 09:30 51°19.354 2°46.576 7.2 277 4.4 101810 96
2003-03-27 09:31 51°19.397 2°46.549 3.3 282 4.5 101810 96
2003-03-27 09:32 51°19.443 2°46.531 6.6 294 4.4 101810 96
2003-03-27 09:33 51°19.491 2°46.519 7.7 298 4.4 101800 96
2003-03-27 09:34 51°19.538 2°46.515 6.9 303 4.4 101800 96
2003-03-27 09:35 51°19.589 2°46.512 6.8 308 4.3 101800 96
2003-03-27 09:36 51°19.637 2°46.517 6.5 311 4.3 101800 96
2003-03-27 09:37 51°19.682 2°46.525 6.6 318 4.3 101790 96
2003-03-27 09:38 51°19.719 2°46.533 6.4 309 4.3 101790 96
2003-03-27 09:39 51°19.751 2°46.539 6.8 307 4.3 101800 96
2003-03-27 09:40 51°19.803 2°46.522 7 276 4.3 101810 96
2003-03-27 09:41 51°19.835 2°46.394 2.9 219 4.4 101810 96
2003-03-27 09:42 51°19.764 2°46.161 3.1 307 4.5 101810 96
2003-03-27 09:43 51°19.667 2°45.877 3.1 297 4.5 101810 96
2003-03-27 09:44 51°19.56 2°45.575 3 304 4.5 101810 96
2003-03-27 09:45 51°19.472 2°45.254 4 297 4.4 101810 96
2003-03-27 09:46 51°19.391 2°44.925 3.8 299 4.4 101810 96
2003-03-27 09:47 51°19.309 2°44.593 3.2 314 4.4 101820 96
2003-03-27 09:48 51°19.227 2°44.262 3.3 314 4.4 101820 96
2003-03-27 09:49 51°19.144 2°43.934 4 310 4.4 101810 96
2003-03-27 09:50 51°19.064 2°43.607 3.8 316 4.4 101810 96
2003-03-27 09:51 51°18.984 2°43.278 4.4 310 4.3 101810 96
2003-03-27 09:52 51°18.904 2°42.947 4.2 304 4.4 101820 96
2003-03-27 09:53 51°18.825 2°42.619 3.5 321 4.4 101820 96
2003-03-27 09:54 51°18.746 2°42.289 4 311 4.4 101820 96
2003-03-27 09:55 51°18.667 2°41.959 4.1 306 4.4 101820 96
2003-03-27 09:56 51°18.586 2°41.631 2.8 322 4.4 101820 96
2003-03-27 09:57 51°18.499 2°41.307 3.7 314 4.4 101810 96
2003-03-27 09:58 51°18.413 2°40.983 2.6 310 4.4 101820 96
2003-03-27 09:59 51°18.326 2°40.657 2.8 302 4.4 101810 96
2003-03-27 10:00 51°18.237 2°40.326 3.9 297 4.5 101810 96
2003-03-27 10:01 51°18.15 2°39.997 2.7 312 4.5 101810 96
2003-03-27 10:02 51°18.065 2°39.671 3.4 301 4.5 101810 96
2003-03-27 10:03 51°17.979 2°39.341 2.8 296 4.4 101810 96
2003-03-27 10:04 51°17.893 2°39.01 2.8 293 4.5 101810 96
2003-03-27 10:05 51°17.803 2°38.684 3.5 308 4.6 101810 96
2003-03-27 10:06 51°17.71 2°38.361 2.1 306 4.6 101810 96
2003-03-27 10:07 51°17.604 2°38.048 2.3 348 4.6 101810 96
2003-03-27 10:08 51°17.483 2°37.749 2.2 303 4.6 101810 96
2003-03-27 10:09 51°17.337 2°37.473 1.9 354 4.6 101810 96
2003-03-27 10:10 51°17.163 2°37.256 1.8 37 4.7 101810 96
2003-03-27 10:11 51°16.997 2°37.122 3.3 76 4.8 101810 96
2003-03-27 10:12 51°16.847 2°37.03 2.1 111 4.9 101810 96
2003-03-27 10:13 51°16.757 2°36.954 3.6 132 4.8 101820 96
2003-03-27 10:14 51°16.693 2°36.926 5.2 123 4.8 101810 96
2003-03-27 10:15 51°16.68 2°36.931 4.3 114 4.7 101800 96
2003-03-27 10:16 51°16.678 2°36.939 4 106 4.7 101810 96
2003-03-27 10:17 51°16.656 2°36.967 6.7 89 4.7 101810 96
2003-03-27 10:18 51°16.613 2°37.002 4.1 104 4.7 101810 96
2003-03-27 10:19 51°16.568 2°37.013 4.6 129 4.7 101810 96
2003-03-27 10:20 51°16.527 2°37.005 4.6 133 4.7 101810 96
2003-03-27 10:21 51°16.489 2°36.995 4.1 130 4.7 101810 96
2003-03-27 10:22 51°16.447 2°36.978 3.5 143 4.8 101810 97
2003-03-27 10:23 51°16.405 2°36.951 4.5 142 4.7 101810 97
2003-03-27 10:24 51°16.367 2°36.919 4.6 137 4.7 101810 96
2003-03-27 10:25 51°16.332 2°36.893 3.9 138 4.7 101810 97
2003-03-27 10:26 51°16.298 2°36.869 3.6 150 4.8 101810 97
2003-03-27 10:27 51°16.263 2°36.847 4.3 140 4.8 101810 96
2003-03-27 10:28 51°16.228 2°36.825 4.3 132 4.7 101810 97
2003-03-27 10:29 51°16.192 2°36.805 4.5 141 4.7 101810 97
2003-03-27 10:30 51°16.157 2°36.783 4.1 143 4.6 101810 97
2003-03-27 10:31 51°16.122 2°36.762 5.1 139 4.6 101810 97
2003-03-27 10:32 51°16.086 2°36.74 4.7 141 4.6 101810 97
2003-03-27 10:33 51°16.052 2°36.715 4.5 142 4.6 101810 97
2003-03-27 10:34 51°16.018 2°36.689 4.3 141 4.7 101810 97
2003-03-27 10:35 51°15.985 2°36.662 4.4 138 4.8 101810 97
2003-03-27 10:36 51°15.952 2°36.635 4.8 141 4.8 101810 97
2003-03-27 10:37 51°15.916 2°36.613 4.3 132 4.8 101810 97
2003-03-27 10:38 51°15.877 2°36.589 3.2 135 4.8 101810 97
2003-03-27 10:39 51°15.837 2°36.551 3.6 149 4.8 101810 97
2003-03-27 10:40 51°15.798 2°36.506 2.8 177 4.8 101810 97
2003-03-27 10:41 51°15.762 2°36.454 1.9 173 5.1 101810 97
2003-03-27 10:42 51°15.723 2°36.403 3.1 171 5.3 101810 96
2003-03-27 10:43 51°15.688 2°36.349 3.8 149 5.2 101810 97
2003-03-27 10:44 51°15.649 2°36.304 3.5 150 5 101810 97
2003-03-27 10:45 51°15.608 2°36.264 3.9 152 5 101810 97
2003-03-27 10:46 51°15.566 2°36.226 4.8 139 4.9 101810 97
2003-03-27 10:47 51°15.523 2°36.192 4.1 137 4.8 101800 97
2003-03-27 10:48 51°15.48 2°36.145 3.3 155 4.8 101800 97
2003-03-27 10:49 51°15.447 2°36.094 5.1 182 4.9 101810 97
2003-03-27 10:50 51°15.432 2°36.05 5.1 198 4.9 101810 97
2003-03-27 10:51 51°15.419 2°36.007 5.1 186 4.8 101800 97
2003-03-27 10:52 51°15.4 2°35.971 3.6 171 4.9 101800 97
2003-03-27 10:53 51°15.367 2°35.936 4 148 5 101800 97
2003-03-27 10:54 51°15.322 2°35.894 4.2 145 5 101800 97
2003-03-27 10:55 51°15.277 2°35.851 4.3 159 5 101800 97
2003-03-27 10:56 51°15.232 2°35.804 2.2 169 4.9 101800 97
2003-03-27 10:57 51°15.188 2°35.754 2.8 159 5.1 101790 97
2003-03-27 10:58 51°15.145 2°35.7 4.3 157 5.3 101800 97
2003-03-27 10:59 51°15.104 2°35.644 2.7 175 5.3 101790 97
2003-03-27 11:00 51°15.064 2°35.584 3.2 174 5.5 101800 97
2003-03-27 11:01 51°15.028 2°35.52 4.7 186 5.4 101800 97
2003-03-27 11:02 51°14.994 2°35.451 2.9 178 5.1 101790 97
2003-03-27 11:03 51°14.956 2°35.382 3.8 160 5.3 101800 97
2003-03-27 11:04 51°14.915 2°35.327 5.7 149 5 101800 97
2003-03-27 11:05 51°14.871 2°35.277 4.4 152 4.9 101790 97
2003-03-27 11:06 51°14.83 2°35.221 5.1 159 4.8 101800 97
2003-03-27 11:07 51°14.788 2°35.161 3.6 164 4.8 101790 97
2003-03-27 11:08 51°14.745 2°35.102 2.9 178 5 101790 97
2003-03-27 11:09 51°14.702 2°35.041 4.1 153 5.1 101790 97
2003-03-27 11:10 51°14.66 2°34.98 3 162 5.3 101790 97
2003-03-27 11:11 51°14.617 2°34.922 2.7 157 5.2 101790 97
2003-03-27 11:12 51°14.574 2°34.862 3.6 182 5.4 101790 97
2003-03-27 11:13 51°14.533 2°34.801 3 165 5.5 101790 97
2003-03-27 11:14 51°14.493 2°34.736 4 177 5.7 101790 97
2003-03-27 11:15 51°14.455 2°34.669 3.3 182 5.8 101790 97
2003-03-27 11:16 51°14.417 2°34.6 2.2 169 5.7 101790 97
2003-03-27 11:17 51°14.376 2°34.535 2.9 168 5.8 101790 97
2003-03-27 11:18 51°14.336 2°34.473 3.8 153 5.7 101790 97
2003-03-27 11:19 51°14.295 2°34.415 4.9 138 5.5 101780 97
2003-03-27 11:20 51°14.25 2°34.364 4.9 150 5.2 101780 97
2003-03-27 11:21 51°14.204 2°34.311 5 147 5.1 101790 97
2003-03-27 11:22 51°14.161 2°34.254 4.1 155 5.1 101780 97
2003-03-27 11:23 51°14.123 2°34.192 2.9 170 4.9 101790 97
2003-03-27 11:24 51°14.082 2°34.121 2.9 175 5.1 101790 97
2003-03-27 11:25 51°14.05 2°34.046 4 183 5.3 101790 97
2003-03-27 11:26 51°14.03 2°33.972 5.6 210 5.2 101790 97
2003-03-27 11:27 51°14.023 2°33.908 5.5 214 5.1 101800 97
2003-03-27 11:28 51°14.023 2°33.849 6.3 226 5 101790 97
2003-03-27 11:29 51°14.038 2°33.78 6.8 264 5 101780 97
2003-03-27 11:30 51°14.084 2°33.727 7.8 318 5 101780 97
2003-03-27 11:31 51°14.13 2°33.792 8.8 29 5 101760 97
2003-03-27 11:32 51°14.142 2°34.018 12.8 15 5.1 101750 97
2003-03-27 11:33 51°14.162 2°34.364 13.6 14 5.1 101740 97
2003-03-27 11:34 51°14.181 2°34.722 13.6 17 5.1 101740 97
2003-03-27 11:35 51°14.191 2°35.081 13.6 16 5.1 101740 97
2003-03-27 11:36 51°14.198 2°35.437 13.1 14 5.1 101740 97
2003-03-27 11:37 51°14.21 2°35.789 12.8 15 5.1 101750 97
2003-03-27 11:38 51°14.218 2°36.141 14.4 17 5.1 101740 97
2003-03-27 11:39 51°14.224 2°36.489 13 16 5.1 101750 97
2003-03-27 11:40 51°14.229 2°36.837 13 15 5.1 101750 97
2003-03-27 11:41 51°14.234 2°37.182 14 16 5.1 101750 97
2003-03-27 11:42 51°14.241 2°37.528 13.5 16 5 101750 97
2003-03-27 11:43 51°14.249 2°37.875 13.4 18 5 101750 97
2003-03-27 11:44 51°14.252 2°38.224 12.5 19 5.1 101750 97
2003-03-27 11:45 51°14.247 2°38.571 12.7 16 5.1 101740 97
2003-03-27 11:46 51°14.24 2°38.919 13.9 15 5 101750 97
2003-03-27 11:47 51°14.233 2°39.268 12.5 21 5 101750 97
2003-03-27 11:48 51°14.219 2°39.617 13.2 16 5 101740 97
2003-03-27 11:49 51°14.206 2°39.966 12.3 22 5 101740 97
2003-03-27 11:50 51°14.191 2°40.317 13.5 17 5.1 101740 97
2003-03-27 11:51 51°14.174 2°40.669 13.1 18 5 101740 97
2003-03-27 11:52 51°14.158 2°41.022 12.9 16 5 101750 97
2003-03-27 11:53 51°14.142 2°41.37 12.4 23 5.1 101750 97
2003-03-27 11:54 51°14.122 2°41.631 9.4 29 5 101750 97
2003-03-27 11:55 51°14.106 2°41.808 9.1 29 5 101750 97
2003-03-27 11:56 51°14.106 2°41.888 8 23 5 101760 97
2003-03-27 11:57 51°14.109 2°41.912 6.4 14 4.9 101770 97
2003-03-27 11:58 51°14.113 2°41.929 7 15 5 101770 97
2003-03-27 11:59 51°14.13 2°41.988 8.7 11 5 101760 97
2003-03-27 12:00 51°14.147 2°42.066 8.3 26 5 101760 97
2003-03-27 12:01 51°14.153 2°42.152 8.2 20 5 101760 97
2003-03-27 12:02 51°14.162 2°42.232 8.4 16 5 101760 97
2003-03-27 12:03 51°14.175 2°42.306 8 11 5 101760 97
2003-03-27 12:04 51°14.194 2°42.376 8.5 10 5.1 101760 97
2003-03-27 12:05 51°14.221 2°42.447 7.8 12 5.1 101760 97
2003-03-27 12:06 51°14.244 2°42.516 8.6 9 5.1 101760 97
2003-03-27 12:07 51°14.271 2°42.588 7.4 10 5 101770 97
2003-03-27 12:08 51°14.3 2°42.668 8.1 12 5.1 101770 97
2003-03-27 12:09 51°14.324 2°42.737 7.7 7 5.1 101770 97
2003-03-27 12:10 51°14.354 2°42.806 8.3   5.1 101760 97
2003-03-27 12:11 51°14.388 2°42.871 8 7 5 101760 97
2003-03-27 12:12 51°14.416 2°42.943 7.9 14 5 101760 97
2003-03-27 12:13 51°14.436 2°43.019 7.6 17 5.1 101770 97
2003-03-27 12:14 51°14.461 2°43.096 7.4 8 5.1 101770 97
2003-03-27 12:15 51°14.49 2°43.168 8 5 5.1 101770 97
2003-03-27 12:16 51°14.519 2°43.238 8 3 5.1 101770 97
2003-03-27 12:17 51°14.545 2°43.313 7.6 12 5.1 101770 97
2003-03-27 12:18 51°14.567 2°43.391 7.8 6 5.1 101770 97
2003-03-27 12:19 51°14.598 2°43.458 7.3 359 5.1 101770 97
2003-03-27 12:20 51°14.632 2°43.528 7.8 5 5.1 101770 97
2003-03-27 12:21 51°14.656 2°43.602 7.9 10 5.1 101770 97
2003-03-27 12:22 51°14.682 2°43.675 8.3 4 5.1 101770 97
2003-03-27 12:23 51°14.719 2°43.739 8 1 5.1 101770 97
2003-03-27 12:24 51°14.757 2°43.799 8.6 3 5 101770 97
2003-03-27 12:25 51°14.791 2°43.865 8 10 5 101770 97
2003-03-27 12:26 51°14.824 2°43.928 8.2 10 5 101770 97
2003-03-27 12:27 51°14.85 2°44.003 7.6 22 5.1 101770 97
2003-03-27 12:28 51°14.869 2°44.082 7.7 6 5.1 101770 97
2003-03-27 12:29 51°14.899 2°44.153 7.6 13 5.1 101770 97
2003-03-27 12:30 51°14.908 2°44.229 6.5 37 5 101770 97
2003-03-27 12:31 51°14.898 2°44.277 6.7 55 5 101770 97
2003-03-27 12:32 51°14.876 2°44.307 6.1 69 5.1 101770 97
2003-03-27 12:33 51°14.853 2°44.333 5.5 64 5.1 101780 97
2003-03-27 12:34 51°14.822 2°44.366 5.4 74 5.2 101780 97
2003-03-27 12:35 51°14.769 2°44.382 4.6 130 5.3 101780 97
2003-03-27 12:36 51°14.712 2°44.334 3.1 193 5.1 101780 97
2003-03-27 12:37 51°14.663 2°44.265 4 154 5.3 101780 97
2003-03-27 12:38 51°14.61 2°44.225 4.3 128 5.1 101770 97
2003-03-27 12:39 51°14.553 2°44.202 4.3 117 5 101770 97
2003-03-27 12:40 51°14.495 2°44.176 4.5 125 5.1 101770 97
2003-03-27 12:41 51°14.438 2°44.145 4.1 123 5.1 101770 97
2003-03-27 12:42 51°14.378 2°44.114 4.3 125 5 101760 97
2003-03-27 12:43 51°14.313 2°44.07 3.6 133 5 101760 97
2003-03-27 12:44 51°14.253 2°44.003 2.1 179 5 101770 97
2003-03-27 12:45 51°14.201 2°43.917 4.1 192 5.1 101760 97
2003-03-27 12:46 51°14.164 2°43.813 4.1 212 4.9 101770 97
2003-03-27 12:47 51°14.133 2°43.704 4 209 4.8 101770 97
2003-03-27 12:48 51°14.102 2°43.593 5.2 225 4.9 101760 97
2003-03-27 12:49 51°14.073 2°43.482 4.3 220 4.9 101760 97
2003-03-27 12:50 51°14.041 2°43.371 4.6 216 4.9 101760 97
2003-03-27 12:51 51°14.005 2°43.267 3.9 207 4.9 101760 97
2003-03-27 12:52 51°13.968 2°43.168 4.4 206 4.8 101760 97
2003-03-27 12:53 51°13.935 2°43.048 4.1 204 4.9 101760 97
2003-03-27 12:54 51°13.9 2°42.943 3.8 199 4.8 101760 97
2003-03-27 12:55 51°13.853 2°42.843 3.6 192 4.9 101750 97
2003-03-27 12:56 51°13.808 2°42.749 3.8 189 4.8 101750 97
2003-03-27 12:57 51°13.764 2°42.657 3.8 204 4.8 101750 97
2003-03-27 12:58 51°13.721 2°42.566 3.6 195 4.9 101750 97
2003-03-27 12:59 51°13.678 2°42.474 4.2 194 5 101750 97
2003-03-27 13:00 51°13.633 2°42.375 4.4 201 5 101750 97
2003-03-27 13:01 51°13.591 2°42.282 4.1 190 5 101750 97
2003-03-27 13:02 51°13.551 2°42.188 3.8 196 4.9 101750 97
2003-03-27 13:03 51°13.514 2°42.086 5.7 222 5 101750 97
2003-03-27 13:04 51°13.493 2°41.98 5.6 235 4.9 101750 97
2003-03-27 13:05 51°13.482 2°41.889 5.7 244 5 101750 97
2003-03-27 13:06 51°13.477 2°41.81 5.8 250 4.9 101750 97
2003-03-27 13:07 51°13.475 2°41.713 4.8 243 5 101750 97
2003-03-27 13:08 51°13.398 2°41.481 2.6 259 4.9 101750 97
2003-03-27 13:09 51°13.284 2°41.198 1.9 261 4.9 101750 97
2003-03-27 13:10 51°13.169 2°40.907 3.1 273 5 101750 97
2003-03-27 13:11 51°13.053 2°40.614 3 348 5 101750 97
2003-03-27 13:12 51°12.938 2°40.324 2.6 269 4.9 101740 97
2003-03-27 13:13 51°12.822 2°40.031 2.3 274 4.9 101740 97
2003-03-27 13:14 51°12.707 2°39.738 2.5 277 4.9 101740 97
2003-03-27 13:15 51°12.578 2°39.476 0.2 239 5 101740 97
2003-03-27 13:16 51°12.43 2°39.297 0.2 136 5.1 101740 97
2003-03-27 13:17 51°12.3 2°39.144 0.9 176 5.4 101740 97
2003-03-27 13:18 51°12.196 2°39.016 3.1 181 5.6 101740 97
2003-03-27 13:19 51°12.1 2°38.898 2.4 189 5.6 101740 97
2003-03-27 13:20 51°12.004 2°38.777 2.5 203 5.6 101740 97
2003-03-27 13:21 51°11.913 2°38.591 3.2 250 5.4 101740 97
2003-03-27 13:22 51°11.821 2°38.347 2.6 266 5.3 101740 97
2003-03-27 13:23 51°11.708 2°38.056 3 279 5.2 101740 97
2003-03-27 13:24 51°11.598 2°37.745 4 275 5.2 101740 97
2003-03-27 13:25 51°11.48 2°37.443 1.9 270 5.1 101740 97
2003-03-27 13:26 51°11.347 2°37.164 1.5 276 5.1 101740 97
2003-03-27 13:27 51°11.212 2°36.885 2.4 266 5.1 101740 97
2003-03-27 13:28 51°11.064 2°36.609 1.5 274 5.1 101740 97
2003-03-27 13:29 51°10.895 2°36.368 0.5 3 5.2 101740 97
2003-03-27 13:30 51°10.708 2°36.181 0.9 55 5.3 101740 97
2003-03-27 13:31 51°10.515 2°36.022 0.8 36 5.5 101740 97
2003-03-27 13:32 51°10.324 2°35.861 0.6 24 5.7 101740 97
2003-03-27 13:33 51°10.136 2°35.703 1.7 31 5.8 101740 97
2003-03-27 13:34 51°9.975 2°35.556 1.3 96 5.9 101740 97
2003-03-27 13:35 51°9.82 2°35.414 0.8 102 5.7 101740 97
2003-03-27 13:36 51°9.693 2°35.304 2.9 123 5.7 101740 97
2003-03-27 13:37 51°9.594 2°35.256 3.8 117 5.6 101730 97
2003-03-27 13:38 51°9.515 2°35.211 3.6 145 5.5 101730 97
2003-03-27 13:39 51°9.444 2°35.161 5.3 124 5.3 101730 97
2003-03-27 13:40 51°9.38 2°35.134 3.8 108 5.3 101720 97
2003-03-27 13:41 51°9.32 2°35.116 3.8 107 5.3 101730 97
2003-03-27 13:42 51°9.284 2°35.099 4.5 103 5.2 101720 97
2003-03-27 13:43 51°9.265 2°35.066 5.4 100 5.3 101720 97
2003-03-27 13:44 51°9.25 2°35.048 6.1 79 5.3 101730 97
2003-03-27 13:45 51°9.218 2°35.064 6.8 86 5.4 101720 97
2003-03-27 13:46 51°9.163 2°35.055 4.4 126 5.4 101720 97
2003-03-27 13:47 51°9.103 2°35.001 2.7 166 5.3 101730 97
2003-03-27 13:48 51°9.06 2°34.927 4.9 187 5.6 101730 97
2003-03-27 13:49 51°9.022 2°34.851 4.5 184 5.3 101730 97
2003-03-27 13:50 51°8.982 2°34.782 3 165 5.3 101730 97
2003-03-27 13:51 51°8.938 2°34.707 2.9 175 5.6 101730 97
2003-03-27 13:52 51°8.897 2°34.631 3.3 176 5.8 101730 97
2003-03-27 13:53 51°8.857 2°34.552 3.3 185 5.9 101730 97
2003-03-27 13:54 51°8.813 2°34.47 3.2 174 5.8 101720 97
2003-03-27 13:55 51°8.77 2°34.389 3.2 179 5.8 101730 97
2003-03-27 13:56 51°8.73 2°34.309 3.9 180 5.7 101730 97
2003-03-27 13:57 51°8.687 2°34.228 3.4 178 5.5 101720 97
2003-03-27 13:58 51°8.642 2°34.146 3.8 178 5.5 101720 97
2003-03-27 13:59 51°8.601 2°34.062 3.8 186 5.4 101720 97
2003-03-27 14:00 51°8.557 2°33.981 4.5 192 5.3 101720 97
2003-03-27 14:01 51°8.513 2°33.899 3.8 186 5.2 101720 97
2003-03-27 14:02 51°8.471 2°33.816 3.7 185 5.3 101720 97
2003-03-27 14:03 51°8.429 2°33.737 4.4 190 5.4 101720 97
2003-03-27 14:04 51°8.385 2°33.653 4.4 184 5.4 101720 97
2003-03-27 14:05 51°8.342 2°33.572 4 187 5.3 101720 97
2003-03-27 14:06 51°8.302 2°33.492 3.1 165 5.3 101720 97
2003-03-27 14:07 51°8.258 2°33.413 3.1 164 5.4 101720 97
2003-03-27 14:08 51°8.216 2°33.335 3.3 180 5.6 101720 97
2003-03-27 14:09 51°8.175 2°33.254 4.9 186 5.5 101720 97
2003-03-27 14:10 51°8.134 2°33.172 4.8 192 5.3 101720 97
2003-03-27 14:11 51°8.089 2°33.094 4.8 200 5.3 101710 97
2003-03-27 14:12 51°8.052 2°33.008 5 210 5.3 101720 97
2003-03-27 14:13 51°8.024 2°32.914 5.6 220 5.2 101710 97
2003-03-27 14:14 51°7.999 2°32.816 5.8 228 5.2 101710 97
2003-03-27 14:15 51°7.985 2°32.719 5.7 232 5.3 101710 97
2003-03-27 14:16 51°7.977 2°32.624 5.3 245 5.3 101710 97
2003-03-27 14:17 51°7.971 2°32.543 6.8 256 5.4 101710 97
2003-03-27 14:18 51°7.969 2°32.473 6.3 263 5.3 101700 97
2003-03-27 14:19 51°7.969 2°32.404 7.2 272 5.3 101700 97
2003-03-27 14:20 51°7.974 2°32.336 7.6 277 5.2 101700 97
2003-03-27 14:21 51°7.986 2°32.252 6.2 282 5.2 101690 97
2003-03-27 14:22 51°8.005 2°32.172 6.4 286 5.2 101690 97
2003-03-27 14:23 51°8.028 2°32.101 8 302 5.2 101690 97
2003-03-27 14:24 51°8.061 2°32.047 8.6 316 5.2 101680 97
2003-03-27 14:25 51°8.097 2°32.014 8.2 340 5.1 101670 97
2003-03-27 14:26 51°8.134 2°32.012 8.3 349 5.2 101680 97
2003-03-27 14:27 51°8.169 2°32.028 8.3 355 5.2 101680 97
2003-03-27 14:28 51°8.205 2°32.047 8.8 353 5.2 101680 97
2003-03-27 14:29 51°8.235 2°32.075 8.2 8 5.2 101690 97
2003-03-27 14:30 51°8.264 2°32.109 7.9 357 5.3 101680 97
2003-03-27 14:31 51°8.301 2°32.133 8.9 355 5.3 101680 97
2003-03-27 14:32 51°8.334 2°32.167 9.2 357 5.3 101690 97
2003-03-27 14:33 51°8.369 2°32.189 8.5 349 5.3 101680 97
2003-03-27 14:34 51°8.411 2°32.201 8.6 352 5.3 101680 97
2003-03-27 14:35 51°8.449 2°32.227 7.5 352 5.2 101690 97
2003-03-27 14:36 51°8.49 2°32.248 8 344 5.3 101690 97
2003-03-27 14:37 51°8.53 2°32.269 7.7 350 5.2 101680 97
2003-03-27 14:38 51°8.571 2°32.286 8.2 353 5.3 101680 97
2003-03-27 14:39 51°8.61 2°32.31 7.6 10 5.3 101690 97
2003-03-27 14:40 51°8.633 2°32.355 8.6 13 5.4 101680 97
2003-03-27 14:41 51°8.65 2°32.406 8.3 21 5.3 101680 97
2003-03-27 14:42 51°8.663 2°32.461 7.7 17 5.3 101680 97
2003-03-27 14:43 51°8.68 2°32.515 8.1 9 5.3 101680 97
2003-03-27 14:44 51°8.697 2°32.562 8.6 22 5.3 101680 97
2003-03-27 14:45 51°8.71 2°32.616 7.7 27 5.3 101680 97
2003-03-27 14:46 51°8.723 2°32.67 8.1 14 5.3 101680 97
2003-03-27 14:47 51°8.741 2°32.72 9 18 5.3 101680 97
2003-03-27 14:48 51°8.756 2°32.769 7.8 19 5.4 101680 97
2003-03-27 14:49 51°8.769 2°32.822 8.2 17 5.4 101670 97
2003-03-27 14:50 51°8.781 2°32.877 8.6 27 5.3 101670 97
2003-03-27 14:51 51°8.778 2°32.93 8.5 44 5.3 101670 97
2003-03-27 14:52 51°8.761 2°32.959 7.9 55 5.3 101670 97
2003-03-27 14:53 51°8.744 2°32.977 8.5 60 5.3 101680 97
2003-03-27 14:54 51°8.726 2°32.989 8 55 5.3 101670 97
2003-03-27 14:55 51°8.709 2°33.066 9.6 317 5.4 101670 97
2003-03-27 14:56 51°8.696 2°33.265 11.8 29 5.4 101660 97
2003-03-27 14:57 51°8.747 2°33.53 13.6 8 5.3 101660 97
2003-03-27 14:58 51°8.851 2°33.816 13.8 8 5.2 101650 97
2003-03-27 14:59 51°8.928 2°34.114 13.1 14 5.2 101650 97
2003-03-27 15:00 51°8.992 2°34.424 13.6 13 5.2 101650 97
2003-03-27 15:01 51°9.056 2°34.736 14.1 17 5.2 101650 97
2003-03-27 15:02 51°9.121 2°35.049 14.3 14 5.2 101650 97
2003-03-27 15:03 51°9.186 2°35.358 13.5 20 5.1 101650 97
2003-03-27 15:04 51°9.252 2°35.666 12.2 16 5.1 101660 97
2003-03-27 15:05 51°9.319 2°35.974 13 15 5.2 101650 97
2003-03-27 15:06 51°9.387 2°36.285 13.1 16 5.2 101660 97
2003-03-27 15:07 51°9.454 2°36.594 13.1 14 5.1 101660 97
2003-03-27 15:08 51°9.522 2°36.902 14.6 18 5.2 101660 97
2003-03-27 15:09 51°9.59 2°37.211 13.3 18 5.1 101660 97
2003-03-27 15:10 51°9.659 2°37.525 13.7 12 5.1 101650 97
2003-03-27 15:11 51°9.727 2°37.827 13.6 13 5 101660 97
2003-03-27 15:12 51°9.796 2°38.141 12.7 18 5 101660 97
2003-03-27 15:13 51°9.865 2°38.452 13.8 12 5 101660 97
2003-03-27 15:14 51°9.931 2°38.757 13.4 10 5.1 101650 97
2003-03-27 15:15 51°10.001 2°39.064 12.8 20 5.1 101650 97
2003-03-27 15:16 51°10.068 2°39.374 13.7 16 5.1 101650 97
2003-03-27 15:17 51°10.135 2°39.686 13.3 16 5.1 101660 97
2003-03-27 15:18 51°10.202 2°39.99 13.8 15 5.1 101650 97
2003-03-27 15:19 51°10.268 2°40.295 14.3 14 5.1 101650 97
2003-03-27 15:20 51°10.334 2°40.603 13.1 10 5 101650 97
2003-03-27 15:21 51°10.399 2°40.915 12.5 15 5 101650 97
2003-03-27 15:22 51°10.466 2°41.224 13.7 16 5 101640 97
2003-03-27 15:23 51°10.545 2°41.519 13.7 12 5 101650 97
2003-03-27 15:24 51°10.633 2°41.816 13.2 6 5 101660 97
2003-03-27 15:25 51°10.717 2°42.12 13.1 16 5 101660 97
2003-03-27 15:26 51°10.792 2°42.423 12.8 10 5 101650 97
2003-03-27 15:27 51°10.862 2°42.731 13.6 9 5.1 101660 97
2003-03-27 15:28 51°10.936 2°43.041 13.5 14 5.1 101650 97
2003-03-27 15:29 51°11.011 2°43.36 13.8 11 5 101640 97
2003-03-27 15:30 51°11.083 2°43.666 13.4 12 5 101650 98
2003-03-27 15:31 51°11.157 2°43.974 13.4 11 5 101620 98
2003-03-27 15:32 51°11.226 2°44.284 13.4 17 5 101670 98
2003-03-27 15:33 51°11.295 2°44.598 13.5 12 4.9 101620 98
2003-03-27 15:34 51°11.364 2°44.91 12.9 11 4.9 101620 98
2003-03-27 15:35 51°11.431 2°45.222 13.6 9 5 101610 98
2003-03-27 15:36 51°11.5 2°45.542 12.4 10 5 101610 98
2003-03-27 15:37 51°11.564 2°45.851 12.6 6 4.9 101620 98
2003-03-27 15:38 51°11.641 2°46.162 12.6 6 4.9 101620 98
2003-03-27 15:39 51°11.724 2°46.466 12.5 7 4.9 101630 98
2003-03-27 15:40 51°11.814 2°46.762 12.3 9 5 101630 98
2003-03-27 15:41 51°11.904 2°47.058 13.7 9 5 101630 98
2003-03-27 15:42 51°11.991 2°47.351 13.7 6 5 101630 98
2003-03-27 15:43 51°12.095 2°47.633 13 5 4.9 101630 98
2003-03-27 15:44 51°12.206 2°47.908 14 7 4.9 101620 98
2003-03-27 15:45 51°12.306 2°48.189 13.5 13 4.8 101620 98
2003-03-27 15:46 51°12.41 2°48.47 13.8 7 4.9 101610 98
2003-03-27 15:47 51°12.513 2°48.759 13.6 10 4.9 101620 98
2003-03-27 15:48 51°12.618 2°49.044 13.8 8 5 101620 98
2003-03-27 15:49 51°12.722 2°49.334 14.3 12 4.9 101610 98
2003-03-27 15:50 51°12.824 2°49.616 14.3 6 4.8 101610 98
2003-03-27 15:51 51°12.926 2°49.907 13.6 9 4.9 101610 98
2003-03-27 15:52 51°13.03 2°50.194 14.5 7 4.9 101620 98
2003-03-27 15:53 51°13.134 2°50.483 13.5 1 4.9 101620 98
2003-03-27 15:54 51°13.238 2°50.773 13.2 1 4.8 101620 98
2003-03-27 15:55 51°13.338 2°51.069 13.4 2 4.9 101620 98
2003-03-27 15:56 51°13.443 2°51.357 13.1 11 4.9 101620 98
2003-03-27 15:57 51°13.545 2°51.651 13.1 1 4.8 101620 98
2003-03-27 15:58 51°13.646 2°51.944 13.3 8 4.8 101620 98
2003-03-27 15:59 51°13.75 2°52.238 13.3 2 4.9 101630 98
2003-03-27 16:00 51°13.851 2°52.53 13.1 8 4.9 101620 98
2003-03-27 16:01 51°13.951 2°52.82 13.1 4 4.9 101620 98
2003-03-27 16:02 51°14.055 2°53.106 13.2 3 4.8 101630 98
2003-03-27 16:03 51°14.152 2°53.398 12.1 3 4.8 101630 98
2003-03-27 16:04 51°14.22 2°53.611 9.3 359 4.8 101670 98
2003-03-27 16:05 51°14.258 2°53.724 7.1 1 4.9 101680 98
2003-03-27 16:06 51°14.279 2°53.801 7.5 5 4.8 101670 98
2003-03-27 16:07 51°14.293 2°53.853 6.4 8 4.9 101670 98
2003-03-27 16:08 51°14.302 2°53.894 7.1 17 4.8 101670 98
2003-03-27 16:09 51°14.308 2°53.924 6.8 17 4.8 101670 98
2003-03-27 16:10 51°14.313 2°53.956 6.3 13 4.8 101670 98
2003-03-27 16:11 51°14.316 2°53.987 6.1 21 4.8 101670 98
2003-03-27 16:12 51°14.317 2°54.014 6.5 13 4.8 101660 98
2003-03-27 16:13 51°14.319 2°54.037 6.6 25 4.8 101670 98
2003-03-27 16:14 51°14.322 2°54.062 7.3 14 4.9 101660 98
2003-03-27 16:15 51°14.322 2°54.086 6.4 14 4.8 101660 98
2003-03-27 16:16 51°14.325 2°54.109 5.9 7 4.8 101660 98
2003-03-27 16:17 51°14.328 2°54.13 6.1 3 4.8 101670 98
2003-03-27 16:18 51°14.332 2°54.152 6.3 357 4.8 101670 98
2003-03-27 16:19 51°14.336 2°54.18 6.7   4.8 101650 98
2003-03-27 16:20 51°14.343 2°54.214 7.4 3 4.8 101660 98
2003-03-27 16:21 51°14.363 2°54.28 7.4 11 4.7 101650 98
2003-03-27 16:22 51°14.39 2°54.366 7.6 9 4.7 101640 98
2003-03-27 16:23 51°14.411 2°54.462 7.3 18 4.7 101650 98
2003-03-27 16:24 51°14.416 2°54.554 7 19 4.7 101660 98
2003-03-27 16:25 51°14.405 2°54.647 7 24 4.8 101650 98
2003-03-27 16:26 51°14.388 2°54.733 6.7 26 4.8 101660 98
2003-03-27 16:27 51°14.374 2°54.822 7.1 36 4.8 101660 98
2003-03-27 16:28 51°14.365 2°54.909 7.5 29 4.8 101650 98
2003-03-27 16:29 51°14.354 2°55.011 7.9 35 4.8 101650 98
2003-03-27 16:30 51°14.338 2°55.127 5.7 126 4.7 101660 98
2003-03-27 16:31 51°14.286 2°55.224 4.3 54 4.8 101670 98
2003-03-27 16:32 51°14.239 2°55.314 5.1 74 4.9 101670 98
2003-03-27 16:33 51°14.18 2°55.387 4.5 86 5 101670 98